Terminal Aerodrome Forecast
Issued by NWS Cleveland, OH

Home | Current Version | Previous Version | Text Only | Print | Product List | Glossary Off
Versions: 1 2 3 4 5 6 7 8 9 10 11 12

826
FTUS41 KCLE 192322
TAFERI
TAF
KERI 192322Z 2000/2024 27006KT P6SM FEW250
     FM200400 19003KT P6SM FEW250
     FM201400 22005KT P6SM BKN150
     FM202100 25009KT P6SM VCTS BKN045CB=

USA.gov is the U.S. government's official web portal to all federal, state and local government web resources and services.